createdAt,value
2019-04-04T00:00:08.918Z,25.80
2019-04-04T00:02:42.753Z,24.30
2019-04-04T00:05:13.131Z,28.47
2019-04-04T00:07:42.930Z,28.50
2019-04-04T00:10:13.395Z,26.80
2019-04-04T00:12:43.266Z,33.50
2019-04-04T00:15:14.885Z,25.07
2019-04-04T00:17:44.444Z,29.07
2019-04-04T00:20:14.244Z,29.23
2019-04-04T00:22:44.006Z,24.30
2019-04-04T00:25:13.775Z,29.80
2019-04-04T00:27:43.987Z,24.07
2019-04-04T00:30:14.377Z,32.40
2019-04-04T00:32:44.455Z,29.10
2019-04-04T00:35:14.366Z,25.43
2019-04-04T00:37:44.077Z,28.30
2019-04-04T00:40:14.207Z,25.77
2019-04-04T00:42:43.980Z,27.90
2019-04-04T00:45:13.942Z,25.57
2019-04-04T00:47:43.725Z,25.73
2019-04-04T00:50:13.490Z,28.13
2019-04-04T00:52:43.571Z,26.67
2019-04-04T00:55:13.941Z,30.07
2019-04-04T00:57:44.661Z,25.07
2019-04-04T01:00:14.749Z,26.80
2019-04-04T01:02:44.452Z,23.77
2019-04-04T01:05:14.249Z,27.83
2019-04-04T01:07:43.993Z,24.90
2019-04-04T01:10:14.168Z,23.53
2019-04-04T01:12:43.945Z,31.47
2019-04-04T01:15:13.803Z,28.73
2019-04-04T01:17:43.619Z,28.77
2019-04-04T01:20:13.894Z,26.40
2019-04-04T01:22:43.627Z,26.57
2019-04-04T01:25:13.384Z,31.70
2019-04-04T01:27:43.099Z,28.27
2019-04-04T01:30:13.045Z,24.20
2019-04-04T01:32:42.845Z,27.00
2019-04-04T01:35:12.602Z,27.67
2019-04-04T01:37:42.381Z,30.90
2019-04-04T01:40:12.477Z,30.80
2019-04-04T01:42:42.278Z,29.63
2019-04-04T01:45:13.216Z,25.57
2019-04-04T01:47:43.511Z,30.77
2019-04-04T01:50:13.647Z,29.87
2019-04-04T01:52:43.468Z,28.97
2019-04-04T01:55:13.246Z,30.23
2019-04-04T01:57:42.952Z,25.90
2019-04-04T02:00:15.094Z,26.07
2019-04-04T02:02:44.531Z,27.43
2019-04-04T02:05:14.314Z,30.90
2019-04-04T02:07:43.927Z,25.97
2019-04-04T02:10:13.740Z,29.43
2019-04-04T02:12:43.488Z,25.90
2019-04-04T02:15:14.206Z,24.10
2019-04-04T02:17:44.551Z,30.30
2019-04-04T02:20:14.250Z,32.30
2019-04-04T02:22:43.887Z,32.00
2019-04-04T02:25:13.852Z,28.70
2019-04-04T02:27:43.617Z,36.90
2019-04-04T02:30:16.184Z,38.07
2019-04-04T02:32:45.264Z,26.10
2019-04-04T02:35:15.038Z,27.50
2019-04-04T02:38:04.164Z,27.93
2019-04-04T02:40:34.003Z,25.90
2019-04-04T02:43:04.282Z,26.43
2019-04-04T02:45:35.701Z,29.80
2019-04-04T02:48:05.461Z,30.73
2019-04-04T02:50:35.909Z,29.93
2019-04-04T02:53:05.694Z,28.10
2019-04-04T02:55:35.447Z,32.83
2019-04-04T02:58:05.251Z,28.17
2019-04-04T03:00:34.997Z,27.70
2019-04-04T03:03:08.061Z,27.03
2019-04-04T03:05:36.176Z,29.83
2019-04-04T03:08:05.880Z,26.53
2019-04-04T03:10:35.558Z,30.47
2019-04-04T03:13:05.464Z,29.50
2019-04-04T03:15:35.432Z,32.13
2019-04-04T03:18:05.546Z,31.10
2019-04-04T03:20:35.304Z,29.47
2019-04-04T03:23:05.066Z,28.03
2019-04-04T03:25:34.782Z,27.70
2019-04-04T03:28:04.562Z,29.30
2019-04-04T03:30:34.276Z,35.83
2019-04-04T03:33:04.025Z,32.57
2019-04-04T03:35:33.701Z,32.50
2019-04-04T03:38:03.390Z,30.30
2019-04-04T03:40:33.130Z,25.80
2019-04-04T03:43:02.823Z,27.40
2019-04-04T03:45:32.553Z,28.50
2019-04-04T03:48:02.259Z,31.33
2019-04-04T03:50:32.026Z,29.63
2019-04-04T03:53:01.858Z,32.33
2019-04-04T03:55:31.596Z,26.70
2019-04-04T03:58:01.716Z,31.40
2019-04-04T04:00:32.176Z,29.87
2019-04-04T04:03:01.883Z,30.67
2019-04-04T04:05:35.720Z,37.73
2019-04-04T04:08:03.777Z,31.30
2019-04-04T04:10:34.005Z,30.47
2019-04-04T04:13:03.920Z,28.97
2019-04-04T04:15:33.616Z,30.17
2019-04-04T04:18:03.695Z,33.43
2019-04-04T04:20:36.241Z,30.70
2019-04-04T04:23:04.809Z,36.53
2019-04-04T04:25:36.600Z,28.40
2019-04-04T04:28:05.942Z,30.40
2019-04-04T04:30:39.329Z,35.47
2019-04-04T04:33:07.372Z,30.10
2019-04-04T04:35:40.633Z,37.47
2019-04-04T04:38:08.760Z,33.43
2019-04-04T04:40:38.424Z,27.57
2019-04-04T04:43:08.126Z,31.50
2019-04-04T04:45:37.904Z,29.63
2019-04-04T04:48:07.639Z,33.20
2019-04-04T04:50:40.133Z,30.00
2019-04-04T04:53:08.737Z,31.57
2019-04-04T04:55:38.752Z,33.17
2019-04-04T04:58:10.438Z,31.57
2019-04-04T05:00:40.788Z,30.90
2019-04-04T05:03:10.628Z,35.27
2019-04-04T05:05:40.492Z,33.83
2019-04-04T05:08:10.693Z,31.20
2019-04-04T05:10:40.421Z,31.50
2019-04-04T05:13:10.156Z,28.47
2019-04-04T05:15:40.190Z,34.10
2019-04-04T05:18:11.867Z,35.20
2019-04-04T05:20:41.363Z,32.30
2019-04-04T05:23:11.374Z,31.40
2019-04-04T05:25:52.096Z,30.20
2019-04-04T05:28:12.888Z,30.13
2019-04-04T05:30:42.715Z,32.53
2019-04-04T05:33:12.506Z,27.93
2019-04-04T05:35:42.316Z,34.97
2019-04-04T05:38:12.863Z,31.97
2019-04-04T05:40:42.738Z,29.87
2019-04-04T05:43:14.880Z,26.20
2019-04-04T05:45:45.142Z,33.97
2019-04-04T05:48:15.081Z,28.27
2019-04-04T05:50:44.722Z,39.20
2019-04-04T05:53:14.439Z,28.70
2019-04-04T05:55:44.146Z,37.83
2019-04-04T05:58:13.854Z,28.60
2019-04-04T06:00:45.297Z,29.75
2019-04-04T06:03:15.924Z,30.20
2019-04-04T06:05:45.775Z,30.30
2019-04-04T06:08:15.571Z,32.97
2019-04-04T06:10:45.325Z,42.27
2019-04-04T06:13:15.134Z,30.80
2019-04-04T06:15:44.849Z,32.63
2019-04-04T06:18:14.471Z,30.13
2019-04-04T06:20:44.445Z,26.37
2019-04-04T06:23:14.250Z,28.30
2019-04-04T06:25:44.401Z,30.20
2019-04-04T06:28:14.207Z,29.73
2019-04-04T06:30:43.975Z,29.20
2019-04-04T06:33:13.779Z,30.67
2019-04-04T06:35:47.046Z,29.70
2019-04-04T06:38:34.199Z,27.03
2019-04-04T06:41:03.987Z,27.93
2019-04-04T06:43:33.678Z,29.20
2019-04-04T06:46:03.526Z,24.27
2019-04-04T06:48:33.853Z,24.47
2019-04-04T06:51:06.329Z,31.03
2019-04-04T06:53:36.014Z,32.23
2019-04-04T06:56:05.986Z,25.20
2019-04-04T06:58:36.107Z,28.33
2019-04-04T07:01:05.834Z,22.10
2019-04-04T07:03:35.518Z,24.17
2019-04-04T07:06:05.287Z,21.00
2019-04-04T07:08:34.918Z,23.90
2019-04-04T07:11:15.470Z,24.07
2019-04-04T07:13:42.372Z,32.77
2019-04-04T07:16:08.223Z,26.77
2019-04-04T07:18:38.057Z,27.20
2019-04-04T07:21:07.842Z,22.67
2019-04-04T07:23:37.574Z,22.83
2019-04-04T07:26:07.178Z,29.63
2019-04-04T07:28:36.933Z,22.80
2019-04-04T07:31:06.683Z,23.23
2019-04-04T07:33:36.654Z,22.53
2019-04-04T07:36:06.360Z,30.43
2019-04-04T07:38:35.974Z,23.57
2019-04-04T07:41:06.104Z,23.57
2019-04-04T07:43:39.282Z,20.87
2019-04-04T07:46:16.063Z,23.93
2019-04-04T07:48:39.634Z,22.47
2019-04-04T07:51:09.354Z,22.67
2019-04-04T07:53:39.091Z,20.90
2019-04-04T07:56:08.835Z,21.40
2019-04-04T07:58:38.567Z,19.20
2019-04-04T08:01:08.580Z,24.40
2019-04-04T08:03:38.382Z,26.00
2019-04-04T08:06:08.511Z,20.03
2019-04-04T08:08:38.166Z,19.77
2019-04-04T08:11:07.952Z,18.90
2019-04-04T08:13:37.678Z,22.50
2019-04-04T08:16:07.531Z,16.53
2019-04-04T08:18:37.259Z,27.27
2019-04-04T08:21:07.042Z,22.73
2019-04-04T08:23:36.771Z,20.93
2019-04-04T08:26:06.559Z,18.47
2019-04-04T08:28:36.775Z,18.13
2019-04-04T08:31:06.532Z,20.57
2019-04-04T08:33:36.344Z,23.00
2019-04-04T08:36:06.689Z,27.03
2019-04-04T08:38:36.990Z,16.70
2019-04-04T08:41:06.764Z,16.90
2019-04-04T08:43:36.563Z,19.93
2019-04-04T08:46:06.464Z,23.80
2019-04-04T08:48:36.173Z,15.20
2019-04-04T08:51:06.011Z,17.47
2019-04-04T08:53:40.041Z,19.47
2019-04-04T08:56:07.141Z,20.50
2019-04-04T08:58:36.938Z,15.90
2019-04-04T09:01:06.839Z,20.00
2019-04-04T09:03:37.135Z,13.33
2019-04-04T09:06:06.911Z,16.37
2019-04-04T09:08:36.622Z,12.07
2019-04-04T09:11:06.439Z,15.77
2019-04-04T09:13:36.221Z,19.30
2019-04-04T09:16:06.134Z,13.63
2019-04-04T09:18:35.958Z,14.13
2019-04-04T09:21:05.960Z,18.07
2019-04-04T09:23:35.586Z,14.63
2019-04-04T09:26:06.401Z,12.90
2019-04-04T09:28:36.303Z,17.40
2019-04-04T09:31:06.259Z,15.50
2019-04-04T09:33:35.975Z,15.23
2019-04-04T09:36:05.775Z,15.67
2019-04-04T09:38:35.555Z,17.13
2019-04-04T09:41:05.360Z,16.93
2019-04-04T09:43:35.481Z,16.80
2019-04-04T09:46:05.599Z,14.30
2019-04-04T09:48:35.399Z,15.63
2019-04-04T09:51:05.123Z,15.77
2019-04-04T09:53:34.923Z,13.50
2019-04-04T09:56:04.695Z,12.07
2019-04-04T09:58:34.431Z,12.33
2019-04-04T10:01:06.561Z,12.20
2019-04-04T10:03:35.998Z,12.50
2019-04-04T10:06:05.782Z,12.80
2019-04-04T10:08:38.566Z,9.70
2019-04-04T10:11:06.818Z,12.83
2019-04-04T10:13:36.574Z,15.87
2019-04-04T10:16:06.580Z,13.30
2019-04-04T10:18:36.294Z,10.03
2019-04-04T10:21:12.036Z,12.57
2019-04-04T10:23:37.527Z,12.50
2019-04-04T10:26:07.427Z,12.30
2019-04-04T10:28:37.088Z,11.40
2019-04-04T10:31:06.922Z,9.40
2019-04-04T10:33:36.726Z,11.93
2019-04-04T10:36:06.511Z,10.07
2019-04-04T10:38:36.535Z,11.17
2019-04-04T10:41:06.326Z,12.77
2019-04-04T10:43:36.266Z,12.27
2019-04-04T10:46:06.062Z,11.23
2019-04-04T10:48:35.764Z,13.60
2019-04-04T10:51:05.493Z,10.43
2019-04-04T10:53:35.652Z,9.50
2019-04-04T10:56:05.440Z,14.40
2019-04-04T10:58:35.146Z,10.40
2019-04-04T11:01:04.950Z,13.70
2019-04-04T11:03:34.746Z,9.37
2019-04-04T11:06:04.535Z,11.30
2019-04-04T11:08:34.311Z,8.20
2019-04-04T11:11:04.105Z,8.53
2019-04-04T11:13:34.162Z,12.37
2019-04-04T11:16:04.146Z,10.63
2019-04-04T11:18:33.727Z,11.20
2019-04-04T11:21:03.524Z,8.33
2019-04-04T11:23:33.392Z,12.03
2019-04-04T11:26:03.336Z,7.83
2019-04-04T11:28:36.544Z,10.33
2019-04-04T11:31:07.077Z,14.37
2019-04-04T11:33:36.955Z,10.83
2019-04-04T11:36:06.656Z,8.10
2019-04-04T11:38:36.302Z,9.80
2019-04-04T11:41:06.087Z,13.87
2019-04-04T11:43:35.739Z,11.13
2019-04-04T11:46:05.510Z,9.80
2019-04-04T11:48:35.232Z,8.50
2019-04-04T11:51:24.302Z,13.50
2019-04-04T11:53:54.076Z,10.50
2019-04-04T11:56:24.511Z,10.97
2019-04-04T11:58:54.418Z,14.87
2019-04-04T12:01:25.761Z,8.20
2019-04-04T12:03:55.553Z,7.90
2019-04-04T12:06:25.251Z,18.27
2019-04-04T12:08:55.049Z,16.80
2019-04-04T12:11:24.758Z,12.10
2019-04-04T12:13:54.559Z,8.43
2019-04-04T12:16:24.330Z,8.00
2019-04-04T12:18:53.975Z,7.13
2019-04-04T12:21:23.950Z,7.93
2019-04-04T12:23:53.594Z,11.73
2019-04-04T12:26:23.382Z,9.77
2019-04-04T12:28:53.006Z,10.90
2019-04-04T12:31:23.199Z,9.87
2019-04-04T12:33:53.319Z,9.13
2019-04-04T12:36:24.733Z,8.20
2019-04-04T12:38:54.367Z,11.70
2019-04-04T12:41:24.167Z,12.70
2019-04-04T12:43:53.875Z,10.73
2019-04-04T12:46:23.671Z,11.43
2019-04-04T12:48:53.379Z,12.60
2019-04-04T12:51:23.434Z,8.50
2019-04-04T12:53:53.135Z,8.50
2019-04-04T12:56:22.859Z,11.93
2019-04-04T12:58:52.588Z,10.10
2019-04-04T13:01:22.420Z,9.60
2019-04-04T13:03:52.309Z,8.80
2019-04-04T13:06:22.726Z,10.27
2019-04-04T13:09:12.110Z,12.30
2019-04-04T13:11:41.923Z,9.10
2019-04-04T13:14:11.762Z,9.50
2019-04-04T13:16:41.545Z,11.17
2019-04-04T13:19:11.283Z,13.23
2019-04-04T13:21:41.407Z,11.03
2019-04-04T13:24:11.200Z,13.30
2019-04-04T13:26:40.991Z,7.20
2019-04-04T13:29:10.783Z,9.20
2019-04-04T13:31:40.600Z,8.90
2019-04-04T13:34:10.335Z,7.73
2019-04-04T13:36:40.228Z,10.97
2019-04-04T13:39:10.651Z,9.37
2019-04-04T13:41:40.482Z,7.23
2019-04-04T13:44:10.365Z,16.60
2019-04-04T13:46:40.083Z,9.07
2019-04-04T13:49:09.951Z,9.10
2019-04-04T13:51:39.876Z,10.20
2019-04-04T13:54:09.626Z,12.33
2019-04-04T13:56:39.453Z,9.03
2019-04-04T13:59:09.242Z,8.50
2019-04-04T14:01:41.865Z,11.20
2019-04-04T14:04:10.323Z,7.93
2019-04-04T14:06:40.011Z,9.37
2019-04-04T14:09:12.043Z,7.37
2019-04-04T14:11:42.153Z,7.40
2019-04-04T14:14:12.140Z,8.63
2019-04-04T14:16:42.348Z,13.60
2019-04-04T14:19:12.238Z,11.60
2019-04-04T14:21:42.108Z,8.13
2019-04-04T14:24:14.036Z,7.73
2019-04-04T14:26:45.779Z,7.20
2019-04-04T14:29:26.603Z,10.83
2019-04-04T14:31:46.348Z,8.63
2019-04-04T14:34:16.170Z,9.13
2019-04-04T14:36:46.000Z,11.23
2019-04-04T14:39:16.183Z,12.10
2019-04-04T14:41:46.307Z,7.53
2019-04-04T14:44:16.161Z,7.27
2019-04-04T14:46:46.088Z,9.90
2019-04-04T14:49:15.903Z,9.37
2019-04-04T14:51:45.787Z,9.67
2019-04-04T14:54:15.595Z,8.60
2019-04-04T14:56:46.456Z,10.93
2019-04-04T14:59:16.227Z,8.17
2019-04-04T15:01:46.132Z,8.50
2019-04-04T15:07:11.388Z,10.13
2019-04-04T15:09:41.111Z,8.60
2019-04-04T15:12:11.174Z,8.73
2019-04-04T15:14:40.935Z,10.60
2019-04-04T15:17:10.677Z,10.03
2019-04-04T15:19:40.507Z,9.33
2019-04-04T15:22:10.307Z,7.20
2019-04-04T15:24:40.167Z,9.17
2019-04-04T15:27:10.105Z,10.17
2019-04-04T15:29:40.503Z,8.20
2019-04-04T15:32:10.444Z,14.30
2019-04-04T15:34:40.414Z,9.10
2019-04-04T15:37:10.246Z,8.00
2019-04-04T15:39:40.394Z,9.60
2019-04-04T15:42:10.559Z,10.33
2019-04-04T15:44:40.502Z,7.93
2019-04-04T15:47:10.555Z,7.80
2019-04-04T15:49:40.195Z,8.33
2019-04-04T15:52:12.064Z,9.33
2019-04-04T15:54:42.028Z,11.90
2019-04-04T15:57:11.741Z,9.83
2019-04-04T15:59:41.698Z,11.40
2019-04-04T16:02:11.809Z,9.97
2019-04-04T16:04:41.641Z,7.83
2019-04-04T16:07:11.702Z,7.10
2019-04-04T16:09:41.564Z,8.30
2019-04-04T16:12:11.434Z,8.17
2019-04-04T16:14:41.226Z,9.70
2019-04-04T16:17:11.158Z,8.00
2019-04-04T16:19:41.144Z,7.60
2019-04-04T16:22:11.082Z,7.10
2019-04-04T16:24:41.072Z,8.43
2019-04-04T16:27:11.125Z,8.17
2019-04-04T16:29:40.925Z,7.97
2019-04-04T16:32:10.850Z,7.40
2019-04-04T16:34:41.036Z,10.37
2019-04-04T16:37:11.046Z,7.20
2019-04-04T16:39:40.935Z,15.20
2019-04-04T16:42:10.888Z,8.33
2019-04-04T16:44:40.789Z,8.10
2019-04-04T16:47:10.697Z,8.80
2019-04-04T16:49:40.531Z,8.47
2019-04-04T16:52:10.393Z,11.70
2019-04-04T16:54:40.185Z,8.07
2019-04-04T16:57:10.082Z,7.57
2019-04-04T16:59:39.956Z,7.77
2019-04-04T17:02:09.859Z,11.73
2019-04-04T17:04:39.743Z,10.07
2019-04-04T17:07:09.603Z,10.17
2019-04-04T17:09:39.565Z,7.40
2019-04-04T17:12:14.902Z,6.47
2019-04-04T17:14:41.001Z,6.60
2019-04-04T17:17:10.835Z,10.57
2019-04-04T17:19:40.716Z,8.00
2019-04-04T17:22:10.583Z,11.00
2019-04-04T17:24:40.488Z,12.10
2019-04-04T17:27:10.307Z,7.90
2019-04-04T17:29:40.228Z,10.50
2019-04-04T17:32:10.233Z,10.70
2019-04-04T17:34:40.199Z,9.97
2019-04-04T17:37:10.207Z,8.93
2019-04-04T17:39:39.971Z,9.47
2019-04-04T17:42:09.846Z,11.67
2019-04-04T17:44:39.856Z,9.83
2019-04-04T17:47:09.593Z,10.33
2019-04-04T17:49:39.797Z,9.80
2019-04-04T17:52:10.087Z,13.27
2019-04-04T17:54:39.878Z,14.47
2019-04-04T17:57:09.657Z,16.50
2019-04-04T17:59:39.209Z,9.07
2019-04-04T18:02:08.848Z,14.40
2019-04-04T18:04:47.750Z,27.67
2019-04-04T18:07:09.828Z,10.63
2019-04-04T18:09:39.805Z,17.33
2019-04-04T18:12:09.882Z,12.77
2019-04-04T18:14:39.604Z,12.00
2019-04-04T18:17:09.320Z,16.03
2019-04-04T18:19:39.098Z,19.00
2019-04-04T18:22:08.904Z,17.13
2019-04-04T18:24:57.951Z,20.33
2019-04-04T18:27:27.700Z,16.90
2019-04-04T18:29:57.378Z,15.93
2019-04-04T18:32:27.065Z,15.17
2019-04-04T18:34:56.886Z,17.30
2019-04-04T18:37:26.583Z,19.30
2019-04-04T18:39:56.226Z,12.63
2019-04-04T18:42:26.212Z,13.57
2019-04-04T18:44:56.016Z,15.40
2019-04-04T18:47:25.770Z,15.13
2019-04-04T18:49:55.718Z,14.20
2019-04-04T18:52:25.512Z,15.47
2019-04-04T18:54:55.585Z,16.73
2019-04-04T18:57:25.216Z,13.70
2019-04-04T18:59:54.998Z,14.63
2019-04-04T19:02:24.720Z,15.80
2019-04-04T19:05:13.779Z,18.10
2019-04-04T19:07:43.554Z,16.40
2019-04-04T19:10:14.135Z,17.30
2019-04-04T19:12:43.931Z,15.00
2019-04-04T19:15:14.197Z,16.40
2019-04-04T19:17:43.869Z,21.57
2019-04-04T19:20:14.175Z,19.10
2019-04-04T19:22:43.975Z,18.40
2019-04-04T19:25:14.023Z,21.30
2019-04-04T19:27:43.767Z,14.23
2019-04-04T19:30:14.836Z,15.40
2019-04-04T19:32:44.622Z,15.83
2019-04-04T19:35:15.188Z,16.37
2019-04-04T19:38:04.371Z,17.70
2019-04-04T19:40:34.145Z,15.33
2019-04-04T19:43:03.960Z,16.47
2019-04-04T19:45:33.635Z,14.80
2019-04-04T19:48:05.468Z,14.47
2019-04-04T19:50:38.826Z,14.60
2019-04-04T19:53:10.541Z,20.33
2019-04-04T19:55:42.539Z,16.30
2019-04-04T19:58:12.880Z,14.60
2019-04-04T20:00:43.635Z,17.50
2019-04-04T20:03:14.506Z,11.40
2019-04-04T20:05:47.454Z,14.50
2019-04-04T20:08:18.749Z,14.70
2019-04-04T20:10:52.063Z,16.07
2019-04-04T20:13:30.771Z,16.00
2019-04-04T20:15:59.672Z,11.53
2019-04-04T20:18:30.588Z,13.20
2019-04-04T20:21:00.884Z,11.93
2019-04-04T20:23:30.886Z,16.43
2019-04-04T20:26:00.947Z,12.67
2019-04-04T20:28:30.758Z,14.03
2019-04-04T20:31:00.730Z,13.87
2019-04-04T20:33:30.513Z,12.60
2019-04-04T20:36:00.458Z,18.77
2019-04-04T20:38:30.410Z,14.30
2019-04-04T20:41:00.285Z,13.80
2019-04-04T20:43:42.550Z,15.53
2019-04-04T20:46:06.679Z,15.03
2019-04-04T20:48:37.514Z,17.40
2019-04-04T20:51:07.501Z,22.70
2019-04-04T20:53:37.318Z,18.00
2019-04-04T20:56:07.284Z,14.73
2019-04-04T20:58:37.103Z,15.47
2019-04-04T21:01:07.108Z,18.40
2019-04-04T21:03:37.057Z,17.30
2019-04-04T21:06:06.963Z,23.50
2019-04-04T21:08:36.825Z,14.40
2019-04-04T21:11:06.488Z,13.63
2019-04-04T21:13:36.122Z,14.53
2019-04-04T21:16:05.917Z,15.43
2019-04-04T21:18:35.577Z,15.40
2019-04-04T21:21:05.191Z,17.87
2019-04-04T21:23:35.112Z,18.80
2019-04-04T21:26:04.988Z,15.97
2019-04-04T21:28:34.860Z,22.03
2019-04-04T21:31:04.708Z,18.43
2019-04-04T21:33:34.563Z,17.83
2019-04-04T21:36:04.540Z,19.93
2019-04-04T21:38:34.470Z,17.03
2019-04-04T21:41:04.335Z,16.60
2019-04-04T21:43:34.566Z,15.60
2019-04-04T21:46:04.866Z,15.73
2019-04-04T21:48:34.517Z,22.07
2019-04-04T21:51:04.291Z,20.77
2019-04-04T21:53:33.959Z,20.40
2019-04-04T21:56:03.962Z,18.73
2019-04-04T21:58:33.674Z,19.03
2019-04-04T22:01:03.911Z,19.13
2019-04-04T22:03:36.553Z,20.33
2019-04-04T22:06:06.419Z,18.50
2019-04-04T22:08:36.481Z,22.97
2019-04-04T22:11:06.476Z,20.00
2019-04-04T22:13:36.560Z,18.43
2019-04-04T22:16:06.285Z,18.60
2019-04-04T22:18:36.189Z,17.13
2019-04-04T22:21:06.171Z,17.07
2019-04-04T22:23:36.090Z,17.40
2019-04-04T22:26:06.043Z,19.63
2019-04-04T22:28:35.965Z,17.43
2019-04-04T22:31:05.880Z,16.00
2019-04-04T22:33:35.783Z,18.00
2019-04-04T22:36:05.609Z,17.23
2019-04-04T22:38:35.568Z,20.13
2019-04-04T22:41:05.511Z,19.40
2019-04-04T22:43:35.455Z,16.33
2019-04-04T22:46:05.475Z,17.07
2019-04-04T22:48:35.443Z,15.83
2019-04-04T22:51:05.331Z,15.40
2019-04-04T22:53:35.433Z,15.20
2019-04-04T22:56:05.980Z,22.83
2019-04-04T22:58:35.976Z,18.20
2019-04-04T23:01:06.382Z,16.47
2019-04-04T23:03:36.295Z,16.87
2019-04-04T23:06:06.227Z,17.50
2019-04-04T23:08:36.236Z,16.27
2019-04-04T23:11:06.200Z,18.67
2019-04-04T23:13:36.164Z,17.00
2019-04-04T23:16:06.049Z,16.93
2019-04-04T23:18:35.759Z,18.40
2019-04-04T23:21:05.628Z,17.13
2019-04-04T23:23:35.596Z,21.07
2019-04-04T23:26:05.691Z,19.73
2019-04-04T23:28:36.729Z,15.97
2019-04-04T23:31:06.654Z,15.90
2019-04-04T23:33:36.595Z,29.20
2019-04-04T23:36:06.415Z,16.43
2019-04-04T23:38:36.132Z,19.43
2019-04-04T23:41:06.078Z,22.43
2019-04-04T23:43:36.345Z,16.87
2019-04-04T23:46:06.317Z,21.10
2019-04-04T23:48:36.198Z,18.40
2019-04-04T23:51:06.238Z,18.73
2019-04-04T23:53:36.181Z,17.80
2019-04-04T23:56:06.326Z,18.10
2019-04-04T23:58:36.135Z,17.87
